Time;durP1;ratioP1;P1;durP2;ratioP2;P2;SDS_P1;SDS_P2;PMS_P1;PMS_P2;Temp;Humidity;BMP_temperature;BMP_pressure;BME280_temperature;BME280_humidity;BME280_pressure;Samples;Min_cycle;Max_cycle;Signal;HPM_P1;HPM_P2
2023/06/22 00:00:56;;;;;;;10.35;5.88;;;21.60;74.80;;;20.73;100.00;96089.91;4962043;28;20048;-67
2023/06/22 00:03:24;;;;;;;13.48;5.68;;;21.60;74.50;;;20.71;100.00;96084.00;4993396;28;20533;-67
2023/06/22 00:05:50;;;;;;;9.50;5.72;;;21.50;74.60;;;20.69;100.00;96083.44;4992486;28;20038;-67
2023/06/22 00:08:16;;;;;;;8.50;5.50;;;21.50;74.90;;;20.66;100.00;96078.63;4980889;28;20157;-67
2023/06/22 00:10:42;;;;;;;13.25;5.70;;;21.50;74.90;;;20.65;100.00;96071.66;4983886;28;20034;-66
2023/06/22 00:13:07;;;;;;;10.45;5.50;;;21.50;75.00;;;20.62;100.00;96060.66;4992049;28;20461;-68
2023/06/22 00:15:33;;;;;;;8.25;5.60;;;21.50;74.90;;;20.58;100.00;96052.31;4972948;28;20037;-66
2023/06/22 00:17:59;;;;;;;9.55;5.07;;;21.50;74.60;;;20.60;100.00;96055.59;4972093;28;20038;-68
2023/06/22 00:20:29;;;;;;;8.15;5.20;;;21.50;74.70;;;20.56;100.00;96051.78;4990794;28;20465;-68
2023/06/22 00:22:56;;;;;;;9.15;5.20;;;21.50;74.50;;;20.56;100.00;96043.75;4959729;28;20125;-68
2023/06/22 00:25:22;;;;;;;9.63;6.05;;;21.40;74.40;;;20.54;100.00;96043.22;4958506;28;20034;-68
2023/06/22 00:27:48;;;;;;;9.52;5.20;;;21.40;74.60;;;20.52;100.00;96034.63;4973667;28;20517;-68
2023/06/22 00:30:18;;;;;;;10.77;5.85;;;21.40;74.90;;;20.52;100.00;96034.63;4974588;28;20490;-67
2023/06/22 00:32:44;;;;;;;10.25;5.97;;;21.40;75.10;;;20.46;100.00;96044.47;4990280;28;20042;-68
2023/06/22 00:35:10;;;;;;;12.60;6.30;;;21.30;75.20;;;20.44;100.00;96035.09;4974328;28;20031;-68
2023/06/22 00:37:36;;;;;;;9.32;6.03;;;21.30;75.10;;;20.40;100.00;96042.81;4988038;28;20490;-68
2023/06/22 00:40:04;;;;;;;12.60;5.72;;;21.30;75.30;;;20.38;100.00;96044.91;4990533;28;20045;-65
2023/06/22 00:42:30;;;;;;;8.52;5.47;;;21.20;75.10;;;20.40;100.00;96050.00;4991547;28;20050;-66
2023/06/22 00:44:56;;;;;;;12.73;5.50;;;21.20;75.10;;;20.38;100.00;96044.09;4972317;28;20035;-65
2023/06/22 00:47:21;;;;;;;11.80;6.40;;;21.20;75.20;;;20.34;100.00;96045.66;4958285;28;20533;-66
2023/06/22 00:49:48;;;;;;;9.13;5.65;;;21.20;75.30;;;20.37;100.00;96047.84;4939864;28;20034;-66
2023/06/22 00:52:20;;;;;;;7.72;5.22;;;21.20;75.30;;;20.34;100.00;96042.97;4954985;28;20074;-65
2023/06/22 00:54:48;;;;;;;9.48;5.95;;;21.20;75.40;;;20.32;100.00;96050.44;4973852;28;20042;-66
2023/06/22 00:57:17;;;;;;;11.80;5.85;;;21.20;75.30;;;20.30;100.00;96044.53;4950149;28;20065;-67
2023/06/22 00:59:47;;;;;;;9.23;5.60;;;21.20;75.40;;;20.27;100.00;96042.38;4988001;28;20046;-66
2023/06/22 01:02:13;;;;;;;10.40;5.55;;;21.10;75.60;;;20.26;100.00;96051.44;4969204;28;20027;-67
2023/06/22 01:04:39;;;;;;;10.95;6.40;;;21.20;75.60;;;20.26;100.00;96048.78;4973568;28;20031;-67
2023/06/22 01:07:49;;;;;;;11.95;5.93;;;21.10;75.50;;;20.25;100.00;96055.19;4990129;28;20031;-67
2023/06/22 01:10:36;;;;;;;11.73;6.25;;;21.10;75.60;;;20.18;100.00;96042.84;5003667;28;20031;-66
2023/06/22 01:13:23;;;;;;;10.18;6.07;;;21.10;75.60;;;20.15;100.00;96045.19;4954977;28;20411;-67
2023/06/22 01:15:53;;;;;;;8.23;5.90;;;21.00;75.70;;;20.12;100.00;96024.31;4936386;28;20030;-67
2023/06/22 01:18:19;;;;;;;12.38;6.47;;;21.00;75.80;;;20.08;100.00;96021.34;4958164;28;20450;-67
2023/06/22 01:20:48;;;;;;;12.38;6.20;;;21.00;75.70;;;20.05;100.00;96015.69;4973439;28;20042;-67
2023/06/22 01:23:35;;;;;;;10.43;5.65;;;20.90;76.00;;;20.06;100.00;96019.97;4969044;28;20376;-67
2023/06/22 01:26:36;;;;;;;10.27;5.80;;;21.00;75.80;;;20.02;100.00;96017.00;5007564;28;20064;-67
2023/06/22 01:29:02;;;;;;;10.23;6.25;;;20.90;75.90;;;19.97;100.00;96014.28;4974653;28;20867;-68
2023/06/22 01:31:29;;;;;;;9.35;6.07;;;20.90;76.00;;;19.97;100.00;96018.81;4973234;28;20034;-67
2023/06/22 01:33:59;;;;;;;11.18;5.75;;;20.90;75.90;;;19.95;100.00;96027.09;4993016;28;20493;-67
2023/06/22 01:36:25;;;;;;;10.18;6.03;;;20.90;75.90;;;19.91;100.00;96017.94;4989172;28;20042;-67
2023/06/22 01:38:51;;;;;;;10.00;5.90;;;20.90;76.00;;;19.89;100.00;96017.38;4991628;28;20084;-67
2023/06/22 01:41:17;;;;;;;9.98;6.18;;;20.80;76.10;;;19.89;100.00;96017.38;4992954;28;20120;-67
2023/06/22 01:43:43;;;;;;;9.60;6.07;;;20.80;76.10;;;19.85;100.00;96016.28;4987836;28;20061;-67
2023/06/22 01:46:08;;;;;;;8.82;6.35;;;20.80;76.20;;;19.84;100.00;96012.00;4991765;28;20038;-67
2023/06/22 01:48:34;;;;;;;11.07;6.15;;;20.80;76.30;;;19.81;100.00;96017.81;4992478;28;20505;-67
2023/06/22 01:51:00;;;;;;;8.77;5.88;;;20.70;76.30;;;19.79;100.00;96014.59;4958805;28;20049;-67
2023/06/22 01:53:26;;;;;;;13.70;5.47;;;20.70;76.40;;;19.79;100.00;96017.28;4991899;28;20080;-67
2023/06/22 01:55:52;;;;;;;8.75;5.55;;;20.70;76.40;;;19.80;100.00;96017.03;5008490;28;20450;-67
2023/06/22 01:58:25;;;;;;;7.55;5.13;;;20.70;76.30;;;19.79;100.00;96018.06;5008669;28;20524;-67
2023/06/22 02:01:11;;;;;;;9.10;5.25;;;20.70;76.30;;;19.74;100.00;96018.03;5008529;28;20497;-66
2023/06/22 02:03:57;;;;;;;7.63;5.15;;;20.60;76.50;;;19.72;100.00;96025.47;5007286;28;20120;-67
2023/06/22 02:06:34;;;;;;;9.70;6.22;;;20.60;76.60;;;19.70;100.00;96026.78;4967818;28;20409;-66
2023/06/22 02:09:04;;;;;;;8.68;5.55;;;20.60;76.80;;;19.69;100.00;96030.47;4991905;28;20506;-67
2023/06/22 02:11:30;;;;;;;10.05;6.18;;;20.50;76.90;;;19.66;100.00;96031.78;4992024;28;20172;-66
2023/06/22 02:13:56;;;;;;;8.95;5.35;;;20.60;77.00;;;19.61;100.00;96038.91;4975789;28;20030;-66
2023/06/22 02:16:22;;;;;;;9.63;5.63;;;20.60;77.00;;;19.60;100.00;96031.97;4992230;28;20056;-66
2023/06/22 02:18:50;;;;;;;9.93;5.88;;;20.50;77.00;;;19.56;100.00;96037.00;5008547;28;20045;-66
2023/06/22 02:21:17;;;;;;;9.13;5.82;;;20.50;77.00;;;19.52;100.00;96036.66;5008386;28;20026;-66
2023/06/22 02:23:43;;;;;;;8.68;5.78;;;20.40;77.20;;;19.48;100.00;96040.06;4989707;28;20052;-66
2023/06/22 02:26:08;;;;;;;9.52;5.68;;;20.40;77.30;;;19.44;100.00;96045.06;5008427;28;20046;-67
2023/06/22 02:28:34;;;;;;;11.20;8.40;;;20.40;77.30;;;19.36;100.00;96040.16;4989401;28;20088;-66
2023/06/22 02:31:00;;;;;;;13.05;8.00;;;20.20;77.50;;;19.34;100.00;96044.13;4992126;28;20034;-66
2023/06/22 02:33:25;;;;;;;12.10;8.77;;;20.20;77.50;;;19.25;100.00;96041.09;4991745;28;20108;-67
2023/06/22 02:35:51;;;;;;;9.38;5.93;;;20.10;77.50;;;19.20;100.00;96040.97;5007539;28;20498;-66
2023/06/22 02:38:19;;;;;;;12.48;6.18;;;20.10;77.50;;;19.15;100.00;96038.25;4989888;28;20112;-66
2023/06/22 02:40:46;;;;;;;9.48;5.95;;;20.00;77.80;;;19.10;100.00;96039.00;5011910;28;20178;-66
2023/06/22 02:43:11;;;;;;;9.50;5.93;;;19.90;78.30;;;19.08;100.00;96040.28;4995774;28;20041;-66
2023/06/22 02:45:37;;;;;;;7.40;5.90;;;20.00;78.50;;;19.03;100.00;96033.03;5011238;28;20429;-66
2023/06/22 02:48:03;;;;;;;14.90;6.78;;;19.90;78.90;;;19.03;100.00;96033.03;4978148;28;20038;-66
2023/06/22 02:50:29;;;;;;;14.43;7.13;;;19.90;79.10;;;19.00;100.00;96030.00;4994434;28;20073;-66
2023/06/22 02:52:55;;;;;;;12.05;6.68;;;19.90;79.30;;;18.98;100.00;96040.91;4995545;28;20030;-66
2023/06/22 02:55:21;;;;;;;11.15;6.10;;;19.90;79.50;;;18.95;100.00;96036.88;4992449;28;20038;-66
2023/06/22 02:57:47;;;;;;;9.35;7.00;;;19.80;79.50;;;18.95;100.00;96038.75;4990935;28;20096;-66
2023/06/22 03:00:17;;;;;;;13.15;6.50;;;19.80;79.60;;;18.91;100.00;96030.44;5011803;28;20061;-66
2023/06/22 03:02:47;;;;;;;11.93;6.32;;;19.90;79.50;;;18.91;100.00;96025.09;4979905;28;20046;-66
2023/06/22 03:05:13;;;;;;;7.47;5.93;;;19.90;79.60;;;18.90;100.00;96028.81;4992496;28;20038;-66
2023/06/22 03:07:40;;;;;;;12.82;7.38;;;19.90;79.80;;;18.87;100.00;96023.97;4992207;28;20026;-65
2023/06/22 03:10:10;;;;;;;17.05;11.57;;;19.90;80.00;;;18.88;100.00;96030.91;4995303;28;20121;-66
2023/06/22 03:12:37;;;;;;;20.52;14.82;;;19.90;80.20;;;18.89;100.00;96021.88;4994943;28;20058;-65
2023/06/22 03:15:05;;;;;;;17.63;11.52;;;19.90;80.20;;;18.88;100.00;96020.25;5012495;28;20608;-68
2023/06/22 03:17:31;;;;;;;16.25;10.90;;;19.90;80.20;;;18.89;100.00;96016.53;4997676;28;20034;-66
2023/06/22 03:19:57;;;;;;;18.08;13.25;;;19.90;80.40;;;18.92;100.00;96017.91;4993669;28;20030;-65
2023/06/22 03:22:23;;;;;;;12.45;10.05;;;20.00;80.20;;;18.93;100.00;96015.00;5010341;28;20034;-65
2023/06/22 03:24:48;;;;;;;15.68;9.88;;;20.00;80.20;;;18.95;100.00;96009.41;5010955;28;20030;-66
2023/06/22 03:27:14;;;;;;;11.38;7.35;;;20.00;80.10;;;18.93;100.00;96020.31;4995211;28;20541;-66
2023/06/22 03:29:40;;;;;;;10.88;6.70;;;20.10;80.10;;;18.96;100.00;96027.03;4993142;28;20037;-65
2023/06/22 03:32:06;;;;;;;15.93;10.18;;;20.00;80.10;;;18.97;100.00;96025.97;4993541;28;20118;-66
2023/06/22 03:34:38;;;;;;;17.88;14.07;;;20.10;80.10;;;18.97;100.00;96024.13;4993754;28;20045;-66
2023/06/22 03:37:04;;;;;;;14.07;9.68;;;20.10;80.10;;;19.00;100.00;96038.00;5009699;28;20045;-66
2023/06/22 03:39:30;;;;;;;11.90;8.23;;;20.10;79.90;;;18.99;100.00;96031.88;5011937;28;20033;-66
2023/06/22 03:41:55;;;;;;;11.40;7.22;;;20.10;80.00;;;19.00;100.00;96027.34;4994609;28;20336;-65
2023/06/22 03:44:21;;;;;;;9.73;6.53;;;20.10;80.00;;;19.03;100.00;96032.22;4973140;28;20133;-65
2023/06/22 03:46:47;;;;;;;9.18;6.32;;;20.10;79.90;;;19.02;100.00;96034.06;4993381;28;20088;-66
2023/06/22 03:49:12;;;;;;;9.38;6.43;;;20.10;79.80;;;19.02;100.00;96035.94;4994418;28;20030;-66
2023/06/22 03:51:39;;;;;;;10.98;7.00;;;20.10;79.80;;;19.02;100.00;96035.94;4994118;28;20099;-67
2023/06/22 03:54:04;;;;;;;13.13;9.43;;;20.10;79.80;;;19.03;100.00;96042.88;4975619;28;20037;-68
2023/06/22 03:56:31;;;;;;;12.00;7.65;;;20.10;79.80;;;19.03;100.00;96037.53;5010851;28;20121;-67
2023/06/22 03:58:57;;;;;;;12.25;7.32;;;20.10;79.80;;;19.01;100.00;96040.47;5006272;28;20084;-69
2023/06/22 04:01:22;;;;;;;12.73;6.75;;;20.10;79.80;;;19.01;100.00;96050.28;5007309;28;20030;-70
2023/06/22 04:03:49;;;;;;;10.95;7.55;;;20.10;80.20;;;19.01;100.00;96044.94;4992951;28;20045;-68
2023/06/22 04:06:15;;;;;;;10.98;7.20;;;20.10;80.30;;;19.03;100.00;96040.22;4994147;28;20413;-67
2023/06/22 04:08:41;;;;;;;11.45;6.45;;;20.10;80.20;;;19.04;100.00;96039.16;4993874;28;20030;-66
2023/06/22 04:11:06;;;;;;;10.88;6.88;;;20.10;80.30;;;19.05;100.00;96038.91;4992719;28;20022;-68
2023/06/22 04:13:32;;;;;;;15.52;7.30;;;20.20;80.30;;;19.08;100.00;96038.44;5009926;28;20061;-67
2023/06/22 04:15:58;;;;;;;11.20;7.40;;;20.10;80.30;;;19.10;100.00;96043.50;4993475;28;20046;-68
2023/06/22 04:18:23;;;;;;;13.63;8.02;;;20.20;80.30;;;19.09;100.00;96037.38;4994313;28;20057;-68
2023/06/22 04:20:49;;;;;;;12.80;7.85;;;20.30;80.30;;;19.11;100.00;96035.28;5007016;28;20117;-68
2023/06/22 04:23:15;;;;;;;11.95;7.00;;;20.30;80.40;;;19.14;100.00;96042.78;4993841;28;20052;-68
2023/06/22 04:25:41;;;;;;;14.23;7.88;;;20.30;80.30;;;19.17;100.00;96028.16;5009085;28;20502;-67
2023/06/22 04:28:12;;;;;;;10.07;7.25;;;20.30;80.30;;;19.19;100.00;96031.38;4977489;28;20030;-68
2023/06/22 04:30:46;;;;;;;9.73;7.13;;;20.40;80.20;;;19.22;100.00;96022.88;4989299;28;20711;-67
2023/06/22 04:33:14;;;;;;;12.57;6.88;;;20.50;80.10;;;19.25;100.00;96022.41;5009706;28;20045;-68
2023/06/22 04:35:43;;;;;;;10.57;7.55;;;20.50;80.10;;;19.31;100.00;96024.09;5005499;28;20034;-67
2023/06/22 04:38:09;;;;;;;11.07;7.57;;;20.60;80.10;;;19.36;100.00;96021.50;4993588;28;20107;-67
2023/06/22 04:40:34;;;;;;;12.57;7.32;;;20.60;79.90;;;19.42;100.00;96027.69;4993457;28;20037;-67
2023/06/22 04:43:02;;;;;;;13.88;7.18;;;20.70;79.70;;;19.47;100.00;96030.44;5010454;28;20061;-67
2023/06/22 04:45:31;;;;;;;10.23;6.88;;;20.70;79.60;;;19.50;100.00;96033.44;5010352;28;20049;-67
2023/06/22 04:47:57;;;;;;;12.50;8.00;;;20.70;79.60;;;19.51;100.00;96027.03;4992579;28;20033;-69
2023/06/22 04:50:23;;;;;;;14.63;7.80;;;20.70;79.50;;;19.55;100.00;96028.19;4991967;28;20022;-70
2023/06/22 04:52:49;;;;;;;15.00;7.40;;;20.80;79.30;;;19.61;100.00;96022.91;5009595;28;20033;-71
2023/06/22 04:55:19;;;;;;;17.00;8.15;;;20.90;79.20;;;19.66;100.00;96021.09;4989095;28;20100;-70
2023/06/22 04:57:48;;;;;;;11.02;7.05;;;21.00;79.10;;;19.70;100.00;96022.25;5001809;28;20494;-67
2023/06/22 05:00:19;;;;;;;12.80;7.88;;;21.00;78.90;;;19.76;100.00;96029.25;4992231;28;20025;-69
2023/06/22 05:02:45;;;;;;;;;;;21.00;78.90;;;19.79;100.00;96026.09;4991926;28;20034;-68
2023/06/22 05:05:13;;;;;;;13.88;7.38;;;21.10;78.70;;;19.82;100.00;96019.44;4993080;28;19929;-67
2023/06/22 05:07:42;;;;;;;11.57;7.72;;;21.10;78.70;;;19.85;100.00;96024.28;5005351;28;20033;-71
2023/06/22 05:10:10;;;;;;;12.00;7.18;;;21.20;78.60;;;19.90;100.00;96021.66;4992713;28;20421;-71
2023/06/22 05:12:36;;;;;;;11.68;7.50;;;21.20;78.30;;;19.95;100.00;96027.09;4993297;28;20046;-69
2023/06/22 05:15:02;;;;;;;11.23;7.03;;;21.30;78.10;;;19.99;100.00;96030.06;5001981;28;20040;-68
2023/06/22 05:17:27;;;;;;;10.20;7.00;;;21.40;78.00;;;20.06;100.00;96025.31;4985149;28;20428;-73
2023/06/22 05:19:54;;;;;;;13.20;7.05;;;21.50;78.10;;;20.16;100.00;96036.94;4971145;28;20522;-73
2023/06/22 05:22:20;;;;;;;14.65;6.43;;;21.60;78.00;;;20.22;100.00;96026.31;4983219;28;20037;-73
2023/06/22 05:24:46;;;;;;;10.63;6.50;;;21.60;77.90;;;20.30;100.00;96026.66;4973018;28;20125;-71
2023/06/22 05:27:11;;;;;;;12.23;7.05;;;21.70;77.70;;;20.37;100.00;96027.28;4973549;28;20034;-68
2023/06/22 05:29:37;;;;;;;13.57;6.82;;;21.70;76.90;;;20.43;100.00;96023.63;5007724;28;20033;-70
2023/06/22 05:32:04;;;;;;;12.48;6.82;;;21.80;76.60;;;20.50;100.00;96031.41;4987931;28;20093;-70
2023/06/22 05:34:29;;;;;;;9.18;6.22;;;21.90;76.30;;;20.60;100.00;96026.19;5005106;28;20149;-74
2023/06/22 05:36:55;;;;;;;14.23;6.28;;;22.00;76.50;;;20.68;100.00;96017.69;5006244;28;20076;-70
2023/06/22 05:39:21;;;;;;;14.55;7.43;;;22.20;76.30;;;20.77;100.00;96016.16;5008185;28;20064;-69
2023/06/22 05:41:47;;;;;;;10.55;6.32;;;22.30;75.70;;;20.86;100.00;96008.47;5006990;28;20108;-71
2023/06/22 05:44:13;;;;;;;10.52;6.15;;;22.40;75.60;;;20.97;100.00;96009.34;5007861;28;20515;-73
2023/06/22 05:46:44;;;;;;;13.15;6.78;;;22.50;74.90;;;21.05;100.00;96016.91;5001208;28;20057;-70
2023/06/22 05:49:11;;;;;;;17.23;6.35;;;22.60;74.80;;;21.14;100.00;96010.00;4975916;28;20045;-69
2023/06/22 05:51:37;;;;;;;9.25;5.93;;;22.70;73.90;;;21.25;100.00;96011.72;4978491;28;20121;-68
2023/06/22 05:54:02;;;;;;;14.95;6.22;;;22.80;73.10;;;21.34;100.00;96002.16;4992187;28;20455;-73
2023/06/22 05:56:28;;;;;;;11.07;6.00;;;23.00;72.50;;;21.43;100.00;96001.66;4996648;28;20671;-67
2023/06/22 05:58:54;;;;;;;14.40;6.43;;;23.00;72.50;;;21.54;100.00;96008.69;4992757;28;20026;-71
2023/06/22 06:01:20;;;;;;;11.77;6.28;;;23.20;72.50;;;21.65;100.00;95999.63;5012937;28;20033;-70
2023/06/22 06:03:46;;;;;;;9.75;5.57;;;23.30;71.70;;;21.78;100.00;96003.69;4994051;28;20490;-68
2023/06/22 06:06:12;;;;;;;14.30;5.78;;;23.40;72.00;;;21.89;100.00;95995.44;5010175;28;20045;-71
2023/06/22 06:08:38;;;;;;;12.15;6.57;;;23.50;70.20;;;21.99;100.00;96000.03;4979819;28;20099;-70
2023/06/22 06:11:06;;;;;;;14.18;7.18;;;23.60;69.30;;;22.08;100.00;96006.50;4992257;28;20037;-68
2023/06/22 06:13:32;;;;;;;10.43;6.07;;;23.70;69.20;;;22.21;100.00;96006.00;5010494;28;20041;-69
2023/06/22 06:15:59;;;;;;;15.68;5.85;;;24.00;68.60;;;22.34;100.00;96006.56;4992608;28;20093;-68
2023/06/22 06:18:24;;;;;;;9.25;5.65;;;24.10;68.10;;;22.46;100.00;95994.53;4996963;28;20161;-68
2023/06/22 06:20:50;;;;;;;10.57;5.50;;;24.30;67.90;;;22.57;100.00;96001.50;4990623;28;20034;-70
2023/06/22 06:23:16;;;;;;;11.13;5.35;;;24.50;68.00;;;22.73;100.00;95998.84;4977731;28;20454;-69
2023/06/22 06:25:42;;;;;;;11.60;6.25;;;24.60;67.40;;;22.82;100.00;95990.00;4990955;28;20034;-68
2023/06/22 06:28:07;;;;;;;9.23;5.78;;;24.80;66.50;;;22.98;99.81;95990.81;5007866;28;20138;-68
2023/06/22 06:30:33;;;;;;;12.55;6.25;;;25.00;66.50;;;23.11;98.10;96000.19;4991547;28;20029;-66
2023/06/22 06:32:59;;;;;;;12.65;5.82;;;25.10;65.60;;;23.21;96.41;95987.53;5005114;28;20049;-74
2023/06/22 06:35:25;;;;;;;11.88;5.78;;;25.20;65.00;;;23.36;96.82;95993.97;5011147;28;20413;-73
2023/06/22 06:37:51;;;;;;;9.68;5.18;;;25.40;65.30;;;23.49;96.06;95986.13;5008180;28;20038;-75
2023/06/22 06:40:17;;;;;;;11.93;6.30;;;25.60;64.00;;;23.63;94.87;95981.03;4977447;28;20587;-67
2023/06/22 06:42:48;;;;;;;9.77;5.68;;;25.80;63.30;;;23.78;91.56;95972.91;4995301;28;20045;-74
2023/06/22 06:45:22;;;;;;;8.23;5.25;;;26.00;62.40;;;23.93;90.24;95968.53;4960388;28;20056;-75
2023/06/22 06:47:48;;;;;;;11.02;5.15;;;26.20;61.70;;;24.04;90.27;95964.72;5007081;28;20497;-73
2023/06/22 06:50:14;;;;;;;12.75;5.68;;;26.20;60.90;;;24.14;89.63;95965.47;4962790;28;20437;-70
2023/06/22 06:52:40;;;;;;;10.30;5.13;;;26.50;60.80;;;24.35;88.04;95970.75;4995417;28;20034;-73
2023/06/22 06:55:08;;;;;;;14.25;5.55;;;26.70;59.00;;;24.54;87.01;95973.56;4994075;28;20053;-73
2023/06/22 06:57:34;;;;;;;9.25;4.60;;;27.00;58.90;;;24.74;86.24;95968.03;5005035;28;20030;-73
2023/06/22 07:00:00;;;;;;;13.48;5.30;;;27.30;57.60;;;24.95;84.96;95969.47;4993238;28;20054;-73
2023/06/22 07:02:27;;;;;;;14.52;5.25;;;27.60;57.10;;;25.16;84.11;95972.00;4993939;28;20121;-72
2023/06/22 07:04:55;;;;;;;10.45;4.40;;;27.80;56.70;;;25.40;82.93;95972.03;4996198;28;20038;-73
2023/06/22 07:07:20;;;;;;;7.90;4.78;;;28.10;55.60;;;25.60;80.92;95983.38;4990541;28;20424;-73
2023/06/22 07:09:46;;;;;;;9.13;4.82;;;28.20;54.70;;;25.77;80.12;95974.81;4975382;28;20042;-72
2023/06/22 07:12:12;;;;;;;11.07;4.95;;;28.50;54.60;;;26.03;78.73;95978.03;4976274;28;20033;-72
2023/06/22 07:14:38;;;;;;;10.52;4.63;;;28.70;53.60;;;26.24;77.83;95965.84;5009263;28;20129;-69
2023/06/22 07:17:04;;;;;;;9.35;4.45;;;29.00;53.40;;;26.46;76.80;95969.88;4989172;28;20069;-70
2023/06/22 07:19:31;;;;;;;8.65;4.30;;;29.30;52.10;;;26.67;75.57;95965.78;4992517;28;20037;-71
2023/06/22 07:21:56;;;;;;;11.70;5.15;;;29.60;51.60;;;26.89;73.99;95962.44;4988891;28;20042;-73
2023/06/22 07:24:22;;;;;;;8.88;5.10;;;29.70;50.80;;;27.08;72.68;95954.31;4989729;28;20045;-72
2023/06/22 07:26:49;;;;;;;9.52;4.60;;;29.90;50.20;;;27.30;72.61;95959.84;4991645;28;20033;-69
2023/06/22 07:29:20;;;;;;;13.27;5.43;;;30.30;50.00;;;27.47;69.74;95956.56;4974117;28;20385;-71
2023/06/22 07:31:46;;;;;;;9.57;4.32;;;30.40;49.30;;;27.66;70.68;95959.22;4974507;28;20061;-72
2023/06/22 07:34:12;;;;;;;10.27;4.35;;;30.50;48.50;;;27.82;69.82;95956.97;4985787;28;20037;-71
2023/06/22 07:36:38;;;;;;;12.18;4.82;;;30.80;48.50;;;28.09;68.80;95953.44;4990006;28;20030;-71
2023/06/22 07:39:04;;;;;;;7.40;3.97;;;31.10;47.70;;;28.31;68.29;95942.72;5008856;28;20035;-72
2023/06/22 07:41:30;;;;;;;9.30;3.97;;;31.30;47.30;;;28.58;67.42;95944.50;4992944;28;20030;-73
2023/06/22 07:43:55;;;;;;;10.63;3.80;;;31.60;46.80;;;28.81;66.06;95934.47;4992948;28;20040;-71
2023/06/22 07:46:21;;;;;;;8.73;3.85;;;31.90;46.00;;;29.07;65.33;95927.31;4969925;28;20069;-71
2023/06/22 07:48:47;;;;;;;10.20;4.15;;;32.20;45.30;;;29.30;64.54;95916.44;4991045;28;20030;-72
2023/06/22 07:51:14;;;;;;;8.45;4.05;;;32.40;45.30;;;29.47;62.29;95905.69;5009910;28;20528;-71
2023/06/22 07:53:45;;;;;;;9.57;3.95;;;32.40;43.20;;;29.74;59.43;95896.50;5009353;28;20494;-71
2023/06/22 07:56:11;;;;;;;6.75;3.65;;;32.80;43.60;;;30.02;60.60;95914.09;4992561;28;20091;-71
2023/06/22 07:58:36;;;;;;;10.60;4.47;;;33.10;42.90;;;30.27;59.94;95909.03;4993693;28;20034;-71
2023/06/22 08:01:06;;;;;;;7.93;3.83;;;33.50;42.20;;;30.55;58.93;95909.47;4992564;28;20068;-71
2023/06/22 08:03:32;;;;;;;9.25;4.38;;;33.60;41.90;;;30.56;57.30;95911.09;4976567;28;20050;-70
2023/06/22 08:05:58;;;;;;;8.20;4.30;;;33.10;41.20;;;30.72;57.24;95906.78;4974678;28;20084;-71
2023/06/22 08:08:23;;;;;;;7.78;4.25;;;33.60;41.50;;;30.94;55.26;95898.41;4992828;28;20795;-71
2023/06/22 08:10:49;;;;;;;10.10;4.47;;;33.70;40.30;;;31.05;55.42;95899.69;4993687;28;20084;-69
2023/06/22 08:13:15;;;;;;;10.32;4.18;;;34.00;40.50;;;31.25;55.13;95900.94;5009245;28;20030;-71
2023/06/22 08:15:41;;;;;;;9.57;3.90;;;34.30;40.70;;;31.39;55.18;95906.13;4986285;28;20030;-72
2023/06/22 08:18:06;;;;;;;10.65;4.22;;;34.50;40.40;;;31.57;54.43;95894.03;5008487;28;20509;-72
2023/06/22 08:20:32;;;;;;;11.65;4.13;;;34.70;39.90;;;31.76;54.00;95893.66;4993443;28;20033;-69
2023/06/22 08:23:04;;;;;;;7.68;4.13;;;34.90;39.20;;;32.04;52.87;95899.38;4992060;28;20046;-70
2023/06/22 08:25:30;;;;;;;11.43;3.88;;;35.30;38.90;;;32.25;52.20;95883.06;4992709;28;20100;-71
2023/06/22 08:27:56;;;;;;;9.38;3.60;;;35.40;37.30;;;32.43;51.52;95889.19;5009017;28;20429;-69
2023/06/22 08:30:21;;;;;;;10.48;4.38;;;35.70;37.80;;;32.71;50.45;95890.19;4993159;28;20081;-72
2023/06/22 08:32:48;;;;;;;9.63;4.20;;;36.00;37.20;;;32.83;50.09;95886.75;4993088;28;20030;-68
2023/06/22 08:35:13;;;;;;;8.57;4.63;;;35.90;37.20;;;32.91;49.95;95882.31;4988898;28;20037;-65
2023/06/22 08:37:39;;;;;;;8.75;4.57;;;35.60;37.00;;;32.87;49.35;95877.56;4988591;28;20038;-69
2023/06/22 08:40:10;;;;;;;9.80;4.15;;;35.60;37.40;;;32.91;47.81;95872.22;5006276;28;20580;-68
2023/06/22 08:42:37;;;;;;;9.65;4.00;;;35.60;36.80;;;33.00;48.51;95874.84;5010769;28;20084;-69
2023/06/22 08:45:03;;;;;;;10.63;4.00;;;35.70;37.30;;;33.15;48.34;95872.25;4991178;28;20117;-68
2023/06/22 08:47:29;;;;;;;9.20;3.97;;;35.90;37.90;;;33.27;48.02;95863.31;4975030;28;20115;-70
2023/06/22 08:49:55;;;;;;;10.18;3.80;;;36.00;37.10;;;33.35;48.03;95865.16;4990031;28;20130;-69
2023/06/22 08:52:21;;;;;;;10.45;3.92;;;36.10;37.70;;;33.28;47.73;95864.09;5007239;28;20076;-70
2023/06/22 08:54:50;;;;;;;7.05;3.65;;;35.90;37.40;;;33.23;46.62;95861.56;4972998;28;20115;-69
2023/06/22 08:57:16;;;;;;;14.05;4.00;;;35.80;38.00;;;33.34;47.97;95869.00;5007159;28;20088;-71
2023/06/22 08:59:42;;;;;;;11.55;3.65;;;36.00;38.00;;;33.46;47.74;95877.19;4989243;28;20046;-70
2023/06/22 09:02:08;;;;;;;9.02;4.15;;;36.10;38.10;;;33.56;47.66;95875.94;4976648;28;20049;-73
2023/06/22 09:04:34;;;;;;;8.88;3.90;;;36.10;37.80;;;33.52;47.42;95874.25;4991897;28;20034;-72
2023/06/22 09:07:02;;;;;;;10.45;3.95;;;35.90;38.10;;;33.44;46.66;95863.09;5005760;28;20088;-73
2023/06/22 09:09:28;;;;;;;11.40;4.45;;;35.70;37.90;;;33.31;47.15;95869.66;4992255;28;20037;-74
2023/06/22 09:11:54;;;;;;;13.32;4.68;;;35.50;37.90;;;33.13;46.59;95863.63;4989538;28;20022;-74
2023/06/22 09:14:19;;;;;;;8.25;4.07;;;35.20;38.30;;;33.09;46.56;95867.38;5008102;28;20030;-72
2023/06/22 09:16:45;;;;;;;9.88;4.10;;;35.50;37.80;;;33.22;46.57;95865.44;4982699;28;20038;-67
2023/06/22 09:19:11;;;;;;;13.10;3.90;;;35.80;37.70;;;33.19;47.22;95856.00;4990872;28;20521;-67
2023/06/22 09:21:37;;;;;;;11.10;3.88;;;35.80;38.60;;;33.37;47.50;95865.59;5007993;28;20026;-69
2023/06/22 09:24:02;;;;;;;13.45;4.10;;;36.10;38.10;;;33.55;46.54;95859.91;5008409;28;20099;-70
2023/06/22 09:26:29;;;;;;;9.45;3.55;;;36.30;37.40;;;33.76;46.54;95853.19;4975813;28;20050;-69
2023/06/22 09:28:55;;;;;;;9.15;4.10;;;36.80;37.00;;;34.00;46.05;95857.84;4988998;28;20027;-70
2023/06/22 09:31:27;;;;;;;10.90;3.90;;;37.00;36.60;;;34.18;45.54;95852.88;5007117;28;20057;-70
2023/06/22 09:33:55;;;;;;;10.48;4.10;;;37.20;35.90;;;34.43;44.42;95844.63;5006919;28;20068;-69
2023/06/22 09:36:21;;;;;;;21.48;4.43;;;37.50;36.10;;;34.66;45.18;95857.38;4983556;28;20041;-68
2023/06/22 09:38:48;;;;;;;18.42;4.15;;;37.70;36.00;;;34.80;44.81;95856.94;4998417;28;20030;-68
2023/06/22 09:41:13;;;;;;;13.07;4.07;;;37.90;35.80;;;34.93;44.69;95844.03;4972495;28;20459;-69
2023/06/22 09:43:39;;;;;;;9.40;4.13;;;38.00;35.80;;;35.05;44.54;95841.19;4986974;28;20034;-71
2023/06/22 09:46:06;;;;;;;9.73;4.45;;;38.20;34.90;;;35.20;42.94;95831.44;4959384;28;20153;-71
2023/06/22 09:48:32;;;;;;;13.52;4.00;;;38.30;33.70;;;35.38;42.44;95838.16;4989810;28;20069;-70
2023/06/22 09:50:58;;;;;;;11.68;4.22;;;38.50;34.20;;;35.59;43.12;95835.13;5007020;28;20069;-71
2023/06/22 09:53:24;;;;;;;12.07;4.13;;;38.80;34.40;;;35.79;42.67;95820.31;4966393;28;20092;-70
2023/06/22 09:55:49;;;;;;;11.63;3.92;;;39.10;34.10;;;35.93;42.17;95819.06;4987707;28;20609;-67
2023/06/22 09:58:15;;;;;;;9.07;4.22;;;39.10;33.00;;;36.02;42.00;95817.72;4988586;28;20560;-67
2023/06/22 10:00:44;;;;;;;11.18;4.45;;;39.40;33.10;;;36.18;42.29;95814.88;5003951;28;20562;-67
2023/06/22 10:03:09;;;;;;;9.27;4.38;;;39.60;33.50;;;36.37;42.09;95817.66;5006116;28;20505;-67
2023/06/22 10:05:35;;;;;;;9.98;4.03;;;39.70;32.20;;;36.39;41.81;95823.56;5002500;28;20045;-66
2023/06/22 10:08:01;;;;;;;9.60;4.40;;;40.00;32.90;;;36.63;41.88;95824.38;4986295;28;20053;-67
2023/06/22 10:10:27;;;;;;;12.48;4.80;;;40.40;31.80;;;36.98;40.75;95816.84;4986600;28;20084;-69